CheckWX is a tool to help pilots better visualize weather data.  It is not intended as a substitute for an official pre-flight weather briefing.

10:29:34 UTC

KOEB METAR
Branch County Memorial Airport
Coldwater, Michigan, USA
Current

35 mins ago

KOEB 170955Z AUTO 10004KT 10SM CLR M05/M06 A3015 RMK AO2 T10511060
Observed
Nov-17 @ 09:55 UTC
Wind
  • 100° at 4 KTS
Visibility
10 SM
Flight Rules
VFR
Cloud Levels
  • Clear skies
Temperature
-5°C / 23°F
Dewpoint
-6°C / 21°F
Humidity
93%
Altimeter
30.15" Hg
Pressure
1021.02 hPa
Previous

54 mins ago

KOEB 170936Z AUTO 10004KT 10SM CLR M05/M06 A3016 RMK AO2 T10541064
Observed
Nov-17 @ 09:36 UTC
Wind
  • 100° at 4 KTS
Visibility
10 SM
Flight Rules
VFR
Cloud Levels
  • Clear skies
Temperature
-5°C / 23°F
Dewpoint
-6°C / 21°F
Humidity
93%
Altimeter
30.16" Hg
Pressure
1021.32 hPa
Previous

1 hour ago

KOEB 170915Z AUTO 07004KT 10SM CLR M06/M07 A3017 RMK AO2 T10571068
Observed
Nov-17 @ 09:15 UTC
Wind
  • 070° at 4 KTS
Visibility
10 SM
Flight Rules
VFR
Cloud Levels
  • Clear skies
Temperature
-6°C / 21°F
Dewpoint
-7°C / 19°F
Humidity
93%
Altimeter
30.17" Hg
Pressure
1021.72 hPa